createdAt,value
2022-12-09T00:00:00.893Z,2.4
2022-12-09T00:01:00.492Z,2.5
2022-12-09T00:02:01.151Z,2.4
2022-12-09T00:03:01.108Z,2.4
2022-12-09T00:04:01.006Z,2.4
2022-12-09T00:05:01.235Z,2.4
2022-12-09T00:06:00.785Z,2.3
2022-12-09T00:07:01.306Z,2.3
2022-12-09T00:08:00.845Z,2.3
2022-12-09T00:09:00.502Z,2.4
2022-12-09T00:10:00.980Z,2.3
2022-12-09T00:11:00.782Z,2.4
2022-12-09T00:12:01.294Z,2.3
2022-12-09T00:13:00.891Z,2.4
2022-12-09T00:14:00.361Z,2.4
2022-12-09T00:15:00.929Z,2.3
2022-12-09T00:16:00.710Z,2.3
2022-12-09T00:17:01.230Z,2.3
2022-12-09T00:18:00.942Z,2.3
2022-12-09T00:19:00.565Z,2.3
2022-12-09T00:20:01.113Z,2.3
2022-12-09T00:21:00.626Z,2.4
2022-12-09T00:22:01.146Z,2.5
2022-12-09T00:23:00.760Z,2.4
2022-12-09T00:24:00.339Z,2.4
2022-12-09T00:25:00.915Z,2.4
2022-12-09T00:26:00.532Z,2.4
2022-12-09T00:27:01.379Z,2.4
2022-12-09T00:28:00.764Z,2.4
2022-12-09T00:29:00.586Z,2.4
2022-12-09T00:30:00.939Z,2.4
2022-12-09T00:31:00.668Z,2.5
2022-12-09T00:32:01.243Z,2.5
2022-12-09T00:33:00.764Z,2.6
2022-12-09T00:34:00.389Z,2.5
2022-12-09T00:35:00.976Z,2.6
2022-12-09T00:36:00.579Z,2.6
2022-12-09T00:37:01.276Z,2.6
2022-12-09T00:38:00.799Z,2.5
2022-12-09T00:39:00.481Z,2.6
2022-12-09T00:40:01.039Z,2.5
2022-12-09T00:41:00.642Z,2.4
2022-12-09T00:42:01.189Z,2.5
2022-12-09T00:43:00.799Z,2.5
2022-12-09T00:44:00.459Z,2.5
2022-12-09T00:45:01.251Z,2.5
2022-12-09T00:46:00.778Z,2.6
2022-12-09T00:47:01.548Z,2.6
2022-12-09T00:48:01.011Z,2.6
2022-12-09T00:49:00.664Z,2.6
2022-12-09T00:50:01.019Z,2.5
2022-12-09T00:51:00.779Z,2.6
2022-12-09T00:52:01.192Z,2.5
2022-12-09T00:53:00.803Z,2.6
2022-12-09T00:54:00.673Z,2.5
2022-12-09T00:55:01.096Z,2.6
2022-12-09T00:56:00.779Z,2.6
2022-12-09T00:57:01.199Z,2.6
2022-12-09T00:58:00.782Z,2.5
2022-12-09T00:59:00.379Z,2.5
2022-12-09T01:00:00.949Z,2.4
2022-12-09T01:01:00.791Z,2.4
2022-12-09T01:02:01.160Z,2.4
2022-12-09T01:03:01.076Z,2.5
2022-12-09T01:04:00.799Z,2.5
2022-12-09T01:05:00.807Z,2.5
2022-12-09T01:06:00.678Z,2.4
2022-12-09T01:07:01.076Z,2.4
2022-12-09T01:08:00.742Z,2.4
2022-12-09T01:09:01.406Z,2.4
2022-12-09T01:10:01.104Z,2.4
2022-12-09T01:11:00.613Z,2.3
2022-12-09T01:12:01.099Z,2.4
2022-12-09T01:13:00.731Z,2.4
2022-12-09T01:14:01.581Z,2.4
2022-12-09T01:15:01.207Z,2.4
2022-12-09T01:16:00.648Z,2.4
2022-12-09T01:17:01.413Z,2.4
2022-12-09T01:18:00.724Z,2.5
2022-12-09T01:19:01.540Z,2.5
2022-12-09T01:20:01.221Z,2.5
2022-12-09T01:21:00.573Z,2.5
2022-12-09T01:22:01.189Z,2.5
2022-12-09T01:23:00.768Z,2.5
2022-12-09T01:24:00.367Z,2.5
2022-12-09T01:25:00.946Z,2.6
2022-12-09T01:26:00.555Z,2.6
2022-12-09T01:27:01.304Z,2.7
2022-12-09T01:28:01.023Z,2.7
2022-12-09T01:29:00.411Z,2.7
2022-12-09T01:30:00.921Z,2.7
2022-12-09T01:31:00.577Z,2.6
2022-12-09T01:32:01.180Z,2.6
2022-12-09T01:33:01.111Z,2.6
2022-12-09T01:34:00.531Z,2.8
2022-12-09T01:35:00.884Z,2.7
2022-12-09T01:36:00.465Z,2.7
2022-12-09T01:37:01.072Z,2.7
2022-12-09T01:38:00.656Z,2.7
2022-12-09T01:39:01.381Z,2.7
2022-12-09T01:40:01.054Z,2.7
2022-12-09T01:41:00.534Z,2.7
2022-12-09T01:42:01.066Z,2.7
2022-12-09T01:43:00.729Z,2.7
2022-12-09T01:44:01.250Z,2.7
2022-12-09T01:45:00.935Z,2.8
2022-12-09T01:46:00.491Z,2.8
2022-12-09T01:47:01.104Z,2.8
2022-12-09T01:48:00.842Z,2.8
2022-12-09T01:49:01.258Z,2.8
2022-12-09T01:50:00.930Z,2.8
2022-12-09T01:51:00.636Z,2.9
2022-12-09T01:52:01.062Z,2.9
2022-12-09T01:53:00.643Z,2.8
2022-12-09T01:54:01.501Z,2.8
2022-12-09T01:55:01.066Z,2.8
2022-12-09T01:56:00.448Z,2.8
2022-12-09T01:57:01.068Z,2.8
2022-12-09T01:58:00.869Z,2.8
2022-12-09T01:59:01.305Z,2.8
2022-12-09T02:00:00.936Z,2.9
2022-12-09T02:01:00.658Z,2.8
2022-12-09T02:02:01.218Z,2.8
2022-12-09T02:03:00.887Z,2.9
2022-12-09T02:04:00.922Z,2.9
2022-12-09T02:05:00.975Z,2.8
2022-12-09T02:06:00.557Z,2.9
2022-12-09T02:07:01.126Z,2.9
2022-12-09T02:08:00.824Z,2.9
2022-12-09T02:09:01.463Z,2.8
2022-12-09T02:10:01.325Z,2.8
2022-12-09T02:11:00.801Z,2.9
2022-12-09T02:12:01.109Z,2.9
2022-12-09T02:13:00.933Z,2.8
2022-12-09T02:14:01.430Z,2.7
2022-12-09T02:15:01.059Z,2.7
2022-12-09T02:16:00.584Z,2.7
2022-12-09T02:17:01.229Z,2.7
2022-12-09T02:18:01.075Z,2.6
2022-12-09T02:19:00.367Z,2.7
2022-12-09T02:20:00.898Z,2.7
2022-12-09T02:21:00.683Z,2.7
2022-12-09T02:22:01.259Z,2.7
2022-12-09T02:23:00.930Z,2.7
2022-12-09T02:24:01.286Z,2.8
2022-12-09T02:25:00.876Z,2.8
2022-12-09T02:26:00.821Z,2.7
2022-12-09T02:27:01.135Z,2.8
2022-12-09T02:28:00.905Z,2.8
2022-12-09T02:29:01.268Z,2.8
2022-12-09T02:30:00.919Z,2.8
2022-12-09T02:31:00.728Z,2.7
2022-12-09T02:32:01.213Z,2.7
2022-12-09T02:33:01.205Z,2.8
2022-12-09T02:34:01.186Z,2.8
2022-12-09T02:35:00.871Z,2.7
2022-12-09T02:36:00.892Z,2.7
2022-12-09T02:37:01.175Z,2.7
2022-12-09T02:38:00.815Z,2.7
2022-12-09T02:39:00.374Z,2.7
2022-12-09T02:40:00.928Z,2.7
2022-12-09T02:41:00.800Z,2.7
2022-12-09T02:42:01.131Z,2.7
2022-12-09T02:43:00.782Z,2.8
2022-12-09T02:44:01.300Z,2.7
2022-12-09T02:45:01.181Z,2.8
2022-12-09T02:46:00.599Z,2.8
2022-12-09T02:47:01.212Z,2.8
2022-12-09T02:48:01.138Z,2.9
2022-12-09T02:49:01.093Z,3
2022-12-09T02:50:00.746Z,2.8
2022-12-09T02:51:00.439Z,2.8
2022-12-09T02:52:00.956Z,2.8
2022-12-09T02:53:00.680Z,2.8
2022-12-09T02:54:01.405Z,2.9
2022-12-09T02:55:00.933Z,2.9
2022-12-09T02:56:00.563Z,2.9
2022-12-09T02:57:00.968Z,2.9
2022-12-09T02:58:00.679Z,3
2022-12-09T02:59:01.453Z,2.9
2022-12-09T03:00:00.785Z,2.9
2022-12-09T03:01:00.617Z,2.9
2022-12-09T03:02:01.399Z,2.9
2022-12-09T03:03:00.773Z,2.9
2022-12-09T03:04:01.301Z,3
2022-12-09T03:05:01.096Z,2.9
2022-12-09T03:06:00.412Z,3
2022-12-09T03:07:01.168Z,3
2022-12-09T03:08:00.688Z,3.1
2022-12-09T03:09:01.279Z,3
2022-12-09T03:10:01.084Z,3.1
2022-12-09T03:11:00.527Z,3
2022-12-09T03:12:01.324Z,2.9
2022-12-09T03:13:01.013Z,2.9
2022-12-09T03:14:01.270Z,3
2022-12-09T03:15:00.905Z,2.9
2022-12-09T03:16:00.615Z,2.9
2022-12-09T03:17:01.255Z,2.9
2022-12-09T03:18:00.843Z,2.9
2022-12-09T03:19:00.520Z,2.9
2022-12-09T03:20:00.955Z,2.9
2022-12-09T03:21:00.925Z,2.9
2022-12-09T03:22:01.159Z,2.8
2022-12-09T03:23:00.810Z,2.8
2022-12-09T03:24:00.445Z,2.9
2022-12-09T03:25:01.141Z,2.9
2022-12-09T03:26:00.948Z,2.9
2022-12-09T03:27:01.210Z,2.9
2022-12-09T03:28:00.806Z,2.9
2022-12-09T03:29:00.383Z,3
2022-12-09T03:30:01.003Z,3
2022-12-09T03:31:00.820Z,3
2022-12-09T03:32:01.289Z,3.1
2022-12-09T03:33:01.162Z,3
2022-12-09T03:34:00.682Z,3
2022-12-09T03:35:01.105Z,3
2022-12-09T03:36:00.774Z,3
2022-12-09T03:37:01.299Z,3
2022-12-09T03:38:01.244Z,3
2022-12-09T03:39:00.802Z,3
2022-12-09T03:40:01.299Z,3.1
2022-12-09T03:41:00.854Z,3
2022-12-09T03:42:01.642Z,3
2022-12-09T03:43:01.387Z,3.1
2022-12-09T03:44:01.149Z,3.1
2022-12-09T03:45:01.238Z,3.1
2022-12-09T03:46:00.979Z,3.2
2022-12-09T03:47:01.482Z,3.2
2022-12-09T03:48:00.605Z,3.1
2022-12-09T03:49:01.279Z,3.1
2022-12-09T03:50:00.869Z,3
2022-12-09T03:51:00.638Z,3
2022-12-09T03:52:01.035Z,2.9
2022-12-09T03:53:00.778Z,3
2022-12-09T03:54:01.270Z,3
2022-12-09T03:55:01.050Z,2.9
2022-12-09T03:56:00.600Z,2.9
2022-12-09T03:57:01.328Z,3
2022-12-09T03:58:00.788Z,3
2022-12-09T03:59:01.241Z,3
2022-12-09T04:00:01.600Z,3
2022-12-09T04:01:00.823Z,2.9
2022-12-09T04:02:01.205Z,3
2022-12-09T04:03:00.988Z,3
2022-12-09T04:04:00.795Z,2.9
2022-12-09T04:05:00.828Z,3
2022-12-09T04:06:00.891Z,3
2022-12-09T04:07:01.085Z,2.9
2022-12-09T04:08:00.783Z,2.9
2022-12-09T04:09:02.746Z,2.8
2022-12-09T04:10:00.776Z,2.8
2022-12-09T04:11:00.394Z,2.9
2022-12-09T04:12:00.990Z,2.9
2022-12-09T04:13:00.839Z,2.9
2022-12-09T04:14:01.200Z,2.9
2022-12-09T04:15:00.823Z,3
2022-12-09T04:16:00.576Z,3
2022-12-09T04:17:01.150Z,3.1
2022-12-09T04:18:00.728Z,3
2022-12-09T04:19:01.251Z,2.9
2022-12-09T04:20:00.833Z,2.8
2022-12-09T04:21:00.433Z,2.8
2022-12-09T04:22:01.312Z,2.8
2022-12-09T04:23:00.667Z,2.8
2022-12-09T04:24:01.462Z,2.8
2022-12-09T04:25:01.410Z,2.8
2022-12-09T04:26:01.278Z,2.8
2022-12-09T04:27:01.089Z,2.8
2022-12-09T04:28:01.114Z,2.8
2022-12-09T04:29:01.340Z,2.8
2022-12-09T04:30:01.039Z,2.8
2022-12-09T04:31:00.973Z,2.8
2022-12-09T04:32:00.728Z,2.8
2022-12-09T04:33:00.811Z,2.8
2022-12-09T04:34:03.895Z,2.8
2022-12-09T04:35:01.541Z,2.8
2022-12-09T04:36:01.447Z,2.9
2022-12-09T04:37:00.970Z,2.9
2022-12-09T04:38:00.687Z,2.8
2022-12-09T04:39:01.227Z,2.9
2022-12-09T04:40:00.632Z,2.8
2022-12-09T04:41:01.571Z,2.8
2022-12-09T04:42:01.236Z,2.8
2022-12-09T04:43:00.514Z,2.8
2022-12-09T04:44:01.332Z,2.9
2022-12-09T04:45:00.918Z,2.9
2022-12-09T04:46:01.495Z,2.9
2022-12-09T04:47:01.311Z,3
2022-12-09T04:48:00.807Z,3
2022-12-09T04:49:01.219Z,3
2022-12-09T04:50:00.769Z,3
2022-12-09T04:51:00.668Z,2.9
2022-12-09T04:52:00.897Z,2.9
2022-12-09T04:53:00.621Z,2.9
2022-12-09T04:54:01.154Z,2.9
2022-12-09T04:55:01.042Z,2.9
2022-12-09T04:56:00.563Z,3
2022-12-09T04:57:01.075Z,3
2022-12-09T04:58:00.659Z,2.9
2022-12-09T04:59:01.201Z,2.9
2022-12-09T05:00:01.225Z,2.9
2022-12-09T05:01:01.184Z,2.9
2022-12-09T05:02:00.936Z,2.8
2022-12-09T05:03:00.996Z,2.8
2022-12-09T05:04:00.826Z,2.8
2022-12-09T05:05:01.449Z,2.8
2022-12-09T05:06:01.305Z,2.8
2022-12-09T05:07:01.014Z,2.7
2022-12-09T05:08:01.203Z,2.7
2022-12-09T05:09:01.182Z,2.6
2022-12-09T05:10:01.446Z,2.7
2022-12-09T05:11:01.530Z,2.6
2022-12-09T05:12:01.673Z,2.7
2022-12-09T05:13:01.520Z,2.7
2022-12-09T05:14:01.230Z,2.7
2022-12-09T05:15:00.930Z,2.6
2022-12-09T05:16:00.641Z,2.7
2022-12-09T05:17:01.524Z,2.7
2022-12-09T05:18:01.260Z,2.8
2022-12-09T05:19:01.397Z,2.8
2022-12-09T05:20:01.504Z,2.9
2022-12-09T05:21:01.164Z,2.8
2022-12-09T05:22:01.098Z,2.8
2022-12-09T05:23:04.392Z,2.8
2022-12-09T05:24:00.355Z,2.8
2022-12-09T05:25:01.154Z,2.9
2022-12-09T05:26:00.899Z,2.9
2022-12-09T05:27:01.121Z,2.9
2022-12-09T05:28:01.099Z,2.8
2022-12-09T05:29:00.736Z,2.8
2022-12-09T05:30:01.275Z,2.7
2022-12-09T05:31:00.950Z,2.8
2022-12-09T05:32:01.511Z,2.6
2022-12-09T05:33:00.871Z,2.5
2022-12-09T05:34:00.637Z,2.6
2022-12-09T05:35:01.057Z,2.5
2022-12-09T05:36:00.757Z,2.6
2022-12-09T05:37:01.318Z,2.5
2022-12-09T05:38:01.184Z,2.5
2022-12-09T05:39:00.581Z,2.4
2022-12-09T05:40:01.227Z,2.4
2022-12-09T05:41:00.749Z,2.4
2022-12-09T05:42:01.341Z,2.4
2022-12-09T05:43:01.169Z,2.5
2022-12-09T05:44:00.603Z,2.5
2022-12-09T05:45:01.225Z,2.6
2022-12-09T05:46:01.037Z,2.5
2022-12-09T05:47:00.807Z,2.6
2022-12-09T05:48:00.659Z,2.6
2022-12-09T05:49:00.484Z,2.6
2022-12-09T05:50:06.027Z,2.7
2022-12-09T05:51:00.674Z,2.7
2022-12-09T05:52:01.479Z,2.6
2022-12-09T05:53:00.939Z,2.6
2022-12-09T05:54:00.499Z,2.6
2022-12-09T05:55:01.000Z,2.6
2022-12-09T05:56:00.886Z,2.6
2022-12-09T05:57:01.408Z,2.6
2022-12-09T05:58:00.954Z,2.6
2022-12-09T05:59:00.810Z,2.6
2022-12-09T06:00:01.354Z,2.5
2022-12-09T06:01:00.786Z,2.5
2022-12-09T06:02:05.102Z,2.4
2022-12-09T06:03:01.035Z,2.4
2022-12-09T06:04:00.700Z,2.3
2022-12-09T06:05:01.283Z,2.3
2022-12-09T06:06:00.908Z,2.3
2022-12-09T06:07:00.554Z,2.3
2022-12-09T06:08:05.226Z,2.3
2022-12-09T06:09:00.785Z,2.3
2022-12-09T06:10:01.247Z,2.3
2022-12-09T06:11:01.322Z,2.3
2022-12-09T06:12:01.279Z,2.3
2022-12-09T06:13:01.227Z,2.3
2022-12-09T06:14:00.891Z,2.2
2022-12-09T06:15:01.450Z,2.1
2022-12-09T06:16:01.346Z,2.1
2022-12-09T06:17:01.105Z,2.2
2022-12-09T06:18:01.170Z,2.1
2022-12-09T06:19:00.824Z,2.2
2022-12-09T06:20:01.110Z,2.2
2022-12-09T06:21:00.879Z,2.1
2022-12-09T06:22:00.750Z,2.1
2022-12-09T06:23:01.344Z,2.1
2022-12-09T06:24:00.799Z,2.1
2022-12-09T06:25:01.279Z,2.1
2022-12-09T06:26:00.894Z,2.2
2022-12-09T06:27:00.821Z,2.2
2022-12-09T06:28:01.447Z,2.3
2022-12-09T06:29:00.767Z,2.3
2022-12-09T06:30:00.665Z,2.2
2022-12-09T06:31:01.034Z,2.2
2022-12-09T06:32:01.090Z,2.3
2022-12-09T06:33:00.884Z,2.3
2022-12-09T06:34:01.146Z,2.2
2022-12-09T06:35:01.294Z,2.2
2022-12-09T06:36:01.359Z,2.1
2022-12-09T06:37:01.448Z,2.2
2022-12-09T06:38:01.144Z,2.2
2022-12-09T06:39:06.020Z,2.3
2022-12-09T06:40:01.375Z,2.3
2022-12-09T06:41:01.114Z,2.3
2022-12-09T06:42:00.617Z,2.3
2022-12-09T06:43:01.373Z,2.3
2022-12-09T06:44:00.904Z,2.3
2022-12-09T06:45:00.626Z,2.2
2022-12-09T06:46:01.314Z,2.3
2022-12-09T06:47:01.011Z,2.3
2022-12-09T06:48:01.071Z,2.3
2022-12-09T06:49:00.991Z,2.3
2022-12-09T06:50:06.054Z,2.4
2022-12-09T06:51:01.133Z,2.3
2022-12-09T06:52:00.725Z,2.2
2022-12-09T06:53:01.408Z,2.3
2022-12-09T06:54:00.974Z,2.3
2022-12-09T06:55:00.716Z,2.3
2022-12-09T06:56:03.662Z,2.3
2022-12-09T06:57:00.679Z,2.3
2022-12-09T06:58:01.290Z,2.3
2022-12-09T06:59:01.267Z,2.3
2022-12-09T07:00:01.197Z,2.2
2022-12-09T07:01:01.370Z,2.2
2022-12-09T07:02:01.034Z,2.2
2022-12-09T07:03:01.152Z,2.2
2022-12-09T07:04:01.233Z,2.3
2022-12-09T07:05:00.920Z,2.3
2022-12-09T07:06:01.009Z,2.3
2022-12-09T07:07:00.932Z,2.3
2022-12-09T07:08:00.490Z,2.3
2022-12-09T07:09:01.202Z,2.2
2022-12-09T07:10:00.638Z,2.2
2022-12-09T07:11:01.137Z,2.1
2022-12-09T07:12:01.096Z,2.1
2022-12-09T07:13:00.542Z,2.2
2022-12-09T07:14:01.366Z,2.1
2022-12-09T07:15:00.656Z,2.2
2022-12-09T07:16:01.453Z,2.2
2022-12-09T07:17:00.918Z,2.1
2022-12-09T07:18:00.515Z,2.1
2022-12-09T07:19:01.000Z,2.2
2022-12-09T07:20:06.510Z,2.2
2022-12-09T07:21:01.199Z,2.2
2022-12-09T07:22:01.137Z,2.2
2022-12-09T07:23:00.525Z,2.3
2022-12-09T07:24:01.349Z,2.2
2022-12-09T07:25:00.930Z,2.2
2022-12-09T07:26:01.281Z,2.1
2022-12-09T07:27:06.282Z,2.3
2022-12-09T07:28:00.741Z,2.3
2022-12-09T07:29:01.196Z,2.3
2022-12-09T07:30:01.159Z,2.3
2022-12-09T07:31:00.879Z,2.3
2022-12-09T07:32:00.893Z,2.3
2022-12-09T07:33:00.728Z,2.2
2022-12-09T07:34:01.329Z,2.3
2022-12-09T07:35:01.294Z,2.2
2022-12-09T07:36:01.233Z,2.3
2022-12-09T07:37:01.216Z,2.3
2022-12-09T07:38:00.595Z,2.2
2022-12-09T07:39:01.128Z,2.3
2022-12-09T07:40:01.038Z,2.3
2022-12-09T07:41:00.374Z,2.3
2022-12-09T07:42:00.985Z,2.3
2022-12-09T07:43:00.759Z,2.4
2022-12-09T07:44:01.278Z,2.4
2022-12-09T07:45:00.927Z,2.3
2022-12-09T07:46:00.939Z,2.2
2022-12-09T07:47:01.154Z,2.3
2022-12-09T07:48:00.750Z,2.3
2022-12-09T07:49:01.361Z,2.3
2022-12-09T07:50:06.120Z,2.3
2022-12-09T07:51:00.887Z,2.2
2022-12-09T07:52:00.805Z,2.2
2022-12-09T07:53:00.755Z,2.3
2022-12-09T07:54:01.173Z,2.3
2022-12-09T07:55:00.828Z,2.3
2022-12-09T07:56:01.701Z,2.3
2022-12-09T07:57:00.436Z,2.3
2022-12-09T07:58:01.605Z,2.3
2022-12-09T07:59:00.988Z,2.3
2022-12-09T08:00:00.734Z,2.3
2022-12-09T08:01:01.101Z,2.3
2022-12-09T08:02:05.616Z,2.3
2022-12-09T08:03:01.651Z,2.3
2022-12-09T08:04:01.407Z,2.3
2022-12-09T08:05:01.406Z,2.4
2022-12-09T08:06:01.399Z,2.3
2022-12-09T08:07:01.651Z,2.3
2022-12-09T08:08:00.937Z,2.4
2022-12-09T08:09:01.029Z,2.4
2022-12-09T08:10:01.368Z,2.3
2022-12-09T08:11:00.843Z,2.3
2022-12-09T08:12:01.017Z,2.3
2022-12-09T08:13:00.719Z,2.3
2022-12-09T08:14:03.307Z,2.3
2022-12-09T08:15:00.950Z,2.3
2022-12-09T08:16:00.635Z,2.3
2022-12-09T08:17:01.238Z,2.3
2022-12-09T08:18:01.019Z,2.3
2022-12-09T08:19:00.976Z,2.3
2022-12-09T08:20:01.115Z,2.3
2022-12-09T08:21:00.924Z,2.2
2022-12-09T08:22:01.229Z,2.2
2022-12-09T08:23:00.979Z,2.2
2022-12-09T08:24:00.581Z,2.1
2022-12-09T08:25:01.231Z,2.2
2022-12-09T08:26:01.088Z,2.2
2022-12-09T08:27:01.139Z,2.2
2022-12-09T08:28:01.263Z,2.2
2022-12-09T08:29:01.190Z,2.2
2022-12-09T08:30:01.099Z,2.2
2022-12-09T08:31:01.375Z,2.2
2022-12-09T08:32:00.698Z,2.3
2022-12-09T08:33:00.805Z,2.3
2022-12-09T08:34:00.751Z,2.3
2022-12-09T08:35:01.384Z,2.3
2022-12-09T08:36:00.624Z,2.3
2022-12-09T08:37:02.357Z,2.3
2022-12-09T08:38:01.093Z,2.3
2022-12-09T08:39:00.727Z,2.3
2022-12-09T08:40:01.135Z,2.3
2022-12-09T08:41:00.715Z,2.4
2022-12-09T08:42:01.601Z,2.4
2022-12-09T08:43:01.311Z,2.4
2022-12-09T08:44:00.961Z,2.5
2022-12-09T08:45:02.872Z,2.5
2022-12-09T08:46:01.248Z,2.5
2022-12-09T08:47:00.405Z,2.5
2022-12-09T08:48:01.262Z,2.5
2022-12-09T08:49:00.986Z,2.5
2022-12-09T08:50:00.935Z,2.5
2022-12-09T08:51:00.762Z,2.5
2022-12-09T08:52:01.239Z,2.5
2022-12-09T08:53:01.067Z,2.5
2022-12-09T08:54:00.708Z,2.5
2022-12-09T08:55:00.785Z,2.5
2022-12-09T08:56:00.669Z,2.6
2022-12-09T08:57:01.120Z,2.8
2022-12-09T08:58:00.790Z,2.7
2022-12-09T08:59:01.477Z,2.7
2022-12-09T09:00:01.288Z,2.7
2022-12-09T09:01:00.738Z,2.7
2022-12-09T09:02:01.087Z,2.7
2022-12-09T09:03:00.899Z,2.8
2022-12-09T09:04:01.566Z,2.8
2022-12-09T09:05:00.738Z,2.8
2022-12-09T09:06:05.394Z,2.7
2022-12-09T09:07:01.333Z,2.8
2022-12-09T09:08:00.969Z,2.8
2022-12-09T09:09:00.439Z,2.8
2022-12-09T09:10:00.799Z,2.9
2022-12-09T09:11:00.960Z,2.9
2022-12-09T09:12:00.694Z,2.9
2022-12-09T09:13:00.441Z,2.8
2022-12-09T09:14:00.788Z,2.8
2022-12-09T09:15:00.759Z,2.9
2022-12-09T09:16:01.313Z,3
2022-12-09T09:17:01.026Z,3
2022-12-09T09:18:00.588Z,3
2022-12-09T09:19:01.207Z,3
2022-12-09T09:20:01.150Z,3.1
2022-12-09T09:21:01.240Z,3
2022-12-09T09:22:01.285Z,3.1
2022-12-09T09:23:03.188Z,3.1
2022-12-09T09:24:01.505Z,3.1
2022-12-09T09:25:01.630Z,3.1
2022-12-09T09:26:00.528Z,3.1
2022-12-09T09:27:00.989Z,3
2022-12-09T09:28:00.957Z,3
2022-12-09T09:29:01.530Z,3
2022-12-09T09:30:00.926Z,3.1
2022-12-09T09:31:00.759Z,3.1
2022-12-09T09:32:00.687Z,3.2
2022-12-09T09:33:00.937Z,3.1
2022-12-09T09:34:01.356Z,3.2
2022-12-09T09:35:00.695Z,3.3
2022-12-09T09:36:04.415Z,3.2
2022-12-09T09:37:01.128Z,3.2
2022-12-09T09:38:00.645Z,3.1
2022-12-09T09:39:01.531Z,3.1
2022-12-09T09:40:01.135Z,3.2
2022-12-09T09:41:00.798Z,3.1
2022-12-09T09:42:07.692Z,3.2
2022-12-09T09:43:00.780Z,3.2
2022-12-09T09:44:01.307Z,3.2
2022-12-09T09:45:00.899Z,3.2
2022-12-09T09:46:00.509Z,3.2
2022-12-09T09:47:01.166Z,3.2
2022-12-09T09:48:01.063Z,3.2
2022-12-09T09:49:01.557Z,3.2
2022-12-09T09:50:01.563Z,3.2
2022-12-09T09:51:00.724Z,3.2
2022-12-09T09:52:01.214Z,3.3
2022-12-09T09:53:01.162Z,3.3
2022-12-09T09:54:05.169Z,3.2
2022-12-09T09:55:00.882Z,3.2
2022-12-09T09:56:00.724Z,3.4
2022-12-09T09:57:01.471Z,3.5
2022-12-09T09:58:00.902Z,3.4
2022-12-09T09:59:01.346Z,3.5
2022-12-09T10:00:07.235Z,3.6
2022-12-09T10:01:00.893Z,3.6
2022-12-09T10:02:01.265Z,3.6
2022-12-09T10:03:01.102Z,3.5
2022-12-09T10:04:01.569Z,3.5
2022-12-09T10:05:00.747Z,3.6
2022-12-09T10:06:00.889Z,3.7
2022-12-09T10:07:05.681Z,3.7
2022-12-09T10:08:01.199Z,3.7
2022-12-09T10:09:01.387Z,3.6
2022-12-09T10:10:01.758Z,3.6
2022-12-09T10:11:00.785Z,3.6
2022-12-09T10:12:01.869Z,3.7
2022-12-09T10:13:05.981Z,3.7
2022-12-09T10:14:01.717Z,3.7
2022-12-09T10:15:00.808Z,3.7
2022-12-09T10:16:00.770Z,3.7
2022-12-09T10:17:01.426Z,3.6
2022-12-09T10:18:01.217Z,3.7
2022-12-09T10:19:05.853Z,3.6
2022-12-09T10:20:01.112Z,3.7
2022-12-09T10:21:00.727Z,3.8
2022-12-09T10:22:01.613Z,3.8
2022-12-09T10:23:01.058Z,3.8
2022-12-09T10:24:00.555Z,3.8
2022-12-09T10:25:01.582Z,3.8
2022-12-09T10:26:01.388Z,3.9
2022-12-09T10:27:01.452Z,3.9
2022-12-09T10:28:01.113Z,4
2022-12-09T10:29:00.651Z,4.1
2022-12-09T10:30:01.632Z,4
2022-12-09T10:31:01.653Z,3.9
2022-12-09T10:32:00.942Z,3.8
2022-12-09T10:33:00.687Z,3.7
2022-12-09T10:34:00.952Z,3.8
2022-12-09T10:35:01.363Z,3.8
2022-12-09T10:36:00.826Z,3.9
2022-12-09T10:37:01.244Z,3.9
2022-12-09T10:38:00.885Z,3.9
2022-12-09T10:39:00.900Z,3.8
2022-12-09T10:40:00.892Z,3.7
2022-12-09T10:41:00.731Z,3.7
2022-12-09T10:42:01.512Z,3.8
2022-12-09T10:43:00.832Z,3.7
2022-12-09T10:44:00.622Z,3.7
2022-12-09T10:45:01.493Z,3.7
2022-12-09T10:46:17.646Z,3.7
2022-12-09T10:47:01.268Z,3.7
2022-12-09T10:48:01.114Z,3.7
2022-12-09T10:49:00.584Z,3.8
2022-12-09T10:50:01.148Z,3.8
2022-12-09T10:51:00.898Z,3.8
2022-12-09T10:52:01.605Z,3.9
2022-12-09T10:53:01.254Z,3.8
2022-12-09T10:54:00.947Z,3.8
2022-12-09T10:55:01.097Z,3.8
2022-12-09T10:56:01.053Z,3.8
2022-12-09T10:57:00.842Z,3.7
2022-12-09T10:58:00.847Z,3.8
2022-12-09T10:59:00.447Z,3.8
2022-12-09T11:00:01.130Z,3.7
2022-12-09T11:01:00.864Z,3.8
2022-12-09T11:02:01.912Z,3.9
2022-12-09T11:03:00.886Z,3.9
2022-12-09T11:04:00.758Z,3.9
2022-12-09T11:05:01.444Z,3.9
2022-12-09T11:06:00.911Z,4
2022-12-09T11:07:01.124Z,3.9
2022-12-09T11:08:01.247Z,3.9
2022-12-09T11:09:01.486Z,3.9
2022-12-09T11:10:00.884Z,3.9
2022-12-09T11:11:01.239Z,3.8
2022-12-09T11:12:01.166Z,3.8
2022-12-09T11:13:00.995Z,3.6
2022-12-09T11:14:00.936Z,3.6
2022-12-09T11:15:01.337Z,3.8
2022-12-09T11:16:01.243Z,3.8
2022-12-09T11:17:01.255Z,3.8
2022-12-09T11:18:01.519Z,4
2022-12-09T11:19:01.679Z,4
2022-12-09T11:20:01.894Z,4.1
2022-12-09T11:21:00.942Z,4
2022-12-09T11:22:00.512Z,4
2022-12-09T11:23:01.043Z,3.9
2022-12-09T11:24:03.339Z,3.8
2022-12-09T11:25:01.145Z,3.8
2022-12-09T11:26:01.114Z,3.9
2022-12-09T11:27:00.615Z,3.9
2022-12-09T11:28:01.336Z,3.8
2022-12-09T11:29:00.915Z,3.8
2022-12-09T11:30:01.231Z,3.8
2022-12-09T11:32:00.826Z,3.7
2022-12-09T11:33:01.018Z,3.7
2022-12-09T11:34:01.195Z,3.7
2022-12-09T11:35:01.223Z,3.6
2022-12-09T11:36:01.075Z,3.7
2022-12-09T11:37:01.296Z,3.8
2022-12-09T11:38:00.877Z,3.7
2022-12-09T11:39:00.487Z,3.8
2022-12-09T11:40:01.033Z,4
2022-12-09T11:41:00.659Z,4
2022-12-09T11:42:01.229Z,3.9
2022-12-09T11:43:00.813Z,4.1
2022-12-09T11:44:00.414Z,4.1
2022-12-09T11:45:01.004Z,4.2
2022-12-09T11:46:00.586Z,4.3
2022-12-09T11:47:01.197Z,4.2
2022-12-09T11:48:32.702Z,4.1
2022-12-09T11:49:00.367Z,4
2022-12-09T11:50:01.024Z,4
2022-12-09T11:51:00.600Z,3.9
2022-12-09T11:52:01.181Z,3.8
2022-12-09T11:53:00.787Z,3.8
2022-12-09T11:54:03.344Z,3.8
2022-12-09T11:55:00.907Z,3.7
2022-12-09T11:56:00.512Z,3.7
2022-12-09T11:57:01.076Z,3.7
2022-12-09T11:58:00.660Z,3.6
2022-12-09T11:59:01.242Z,3.6
2022-12-09T12:00:00.823Z,3.6
2022-12-09T12:01:00.424Z,3.6
2022-12-09T12:02:01.022Z,3.6
2022-12-09T12:03:00.689Z,3.7
2022-12-09T12:04:01.216Z,3.8
2022-12-09T12:05:00.797Z,3.8
2022-12-09T12:06:00.398Z,3.8
2022-12-09T12:07:00.968Z,3.8
2022-12-09T12:08:00.627Z,3.8
2022-12-09T12:09:01.216Z,3.8
2022-12-09T12:10:00.787Z,3.8
2022-12-09T12:11:00.390Z,3.7
2022-12-09T12:12:00.977Z,3.7
2022-12-09T12:13:00.558Z,3.7
2022-12-09T12:14:01.139Z,3.7
2022-12-09T12:15:00.722Z,3.7
2022-12-09T12:16:01.311Z,3.7
2022-12-09T12:17:00.943Z,3.7
2022-12-09T12:18:00.536Z,3.7
2022-12-09T12:19:01.107Z,3.7
2022-12-09T12:20:00.690Z,3.7
2022-12-09T12:21:01.272Z,3.7
2022-12-09T12:22:00.874Z,3.8
2022-12-09T12:23:00.478Z,3.9
2022-12-09T12:24:01.049Z,3.9
2022-12-09T12:25:00.655Z,3.9
2022-12-09T12:26:01.216Z,4.1
2022-12-09T12:27:00.828Z,4.2
2022-12-09T12:28:00.384Z,4.3
2022-12-09T12:29:05.582Z,4.2
2022-12-09T12:30:00.513Z,4.3
2022-12-09T12:31:01.103Z,4.4
2022-12-09T12:32:00.739Z,4.4
2022-12-09T12:33:41.112Z,4.4
2022-12-09T12:34:23.308Z,4.3
2022-12-09T12:35:00.350Z,4.2
2022-12-09T12:36:00.931Z,4.2
2022-12-09T12:37:00.532Z,4.3
2022-12-09T12:38:01.098Z,4.2
2022-12-09T12:39:00.707Z,4.2
2022-12-09T12:40:01.272Z,4.1
2022-12-09T12:41:00.887Z,4.1
2022-12-09T12:42:00.520Z,4.1
2022-12-09T12:43:01.080Z,4.1
2022-12-09T12:44:00.662Z,4.3
2022-12-09T12:45:01.245Z,4.3
2022-12-09T12:46:00.865Z,4.3
2022-12-09T12:47:00.481Z,4.3
2022-12-09T12:48:01.151Z,4.2
2022-12-09T12:49:00.718Z,4.1
2022-12-09T12:50:01.299Z,4.2
2022-12-09T12:51:00.903Z,4
2022-12-09T12:52:00.490Z,4
2022-12-09T12:53:01.111Z,4
2022-12-09T12:54:00.699Z,4.1
2022-12-09T12:55:01.269Z,4.2
2022-12-09T12:56:00.852Z,4.2
2022-12-09T12:57:02.645Z,4.1
2022-12-09T12:58:00.993Z,4.3
2022-12-09T12:59:00.595Z,4.3
2022-12-09T13:00:01.156Z,4.2
2022-12-09T13:01:00.863Z,4.3
2022-12-09T13:02:00.328Z,4.2
2022-12-09T13:03:04.508Z,4.3
2022-12-09T13:04:00.453Z,4.4
2022-12-09T13:05:01.041Z,4.4
2022-12-09T13:06:00.631Z,4.5
2022-12-09T13:07:01.212Z,4.7
2022-12-09T13:08:00.894Z,4.7
2022-12-09T13:09:03.170Z,4.7
2022-12-09T13:10:00.935Z,4.7
2022-12-09T13:11:00.523Z,4.6
2022-12-09T13:12:01.109Z,4.5
2022-12-09T13:13:00.721Z,4.5
2022-12-09T13:14:01.293Z,4.4
2022-12-09T13:15:00.876Z,4.3
2022-12-09T13:16:00.479Z,4.3
2022-12-09T13:17:01.121Z,4.3
2022-12-09T13:18:00.701Z,4.2
2022-12-09T13:19:01.286Z,4.3
2022-12-09T13:20:00.878Z,4.3
2022-12-09T13:21:00.481Z,4.3
2022-12-09T13:22:01.045Z,4.3
2022-12-09T13:23:00.626Z,4.3
2022-12-09T13:24:01.208Z,4.3
2022-12-09T13:25:00.796Z,4.1
2022-12-09T13:26:00.388Z,4.3
2022-12-09T13:27:00.946Z,4.3
2022-12-09T13:28:00.528Z,4.3
2022-12-09T13:29:01.151Z,4.2
2022-12-09T13:30:00.750Z,4.1
2022-12-09T13:31:00.391Z,4.1
2022-12-09T13:32:00.903Z,4
2022-12-09T13:33:00.485Z,4.1
2022-12-09T13:34:01.070Z,4.1
2022-12-09T13:35:00.650Z,4.2
2022-12-09T13:36:06.191Z,4.2
2022-12-09T13:37:01.049Z,4.2
2022-12-09T13:38:00.465Z,4.1
2022-12-09T13:39:01.038Z,4.1
2022-12-09T13:40:00.621Z,4
2022-12-09T13:41:01.206Z,4.1
2022-12-09T13:42:00.807Z,4
2022-12-09T13:43:00.418Z,4
2022-12-09T13:44:00.933Z,3.9
2022-12-09T13:45:00.657Z,3.9
2022-12-09T13:46:01.149Z,3.9
2022-12-09T13:47:00.780Z,3.8
2022-12-09T13:48:00.336Z,3.9
2022-12-09T13:49:00.945Z,3.8
2022-12-09T13:50:00.538Z,3.7
2022-12-09T13:51:01.116Z,3.7